createdAt,value
2019-03-22T00:00:30.824Z,61.97
2019-03-22T00:02:59.508Z,66.03
2019-03-22T00:05:28.392Z,64.67
2019-03-22T00:07:57.143Z,62.67
2019-03-22T00:10:25.752Z,64.97
2019-03-22T00:12:54.452Z,62.23
2019-03-22T00:15:23.327Z,61.53
2019-03-22T00:17:52.031Z,57.83
2019-03-22T00:20:20.796Z,56.87
2019-03-22T00:22:49.541Z,58.43
2019-03-22T00:25:18.207Z,62.67
2019-03-22T00:27:46.979Z,62.17
2019-03-22T00:30:15.885Z,59.37
2019-03-22T00:32:44.659Z,62.70
2019-03-22T00:35:13.470Z,66.03
2019-03-22T00:37:42.334Z,68.23
2019-03-22T00:40:11.439Z,73.47
2019-03-22T00:42:40.121Z,72.40
2019-03-22T00:45:10.906Z,67.20
2019-03-22T00:47:39.644Z,63.33
2019-03-22T00:50:10.735Z,62.10
2019-03-22T00:52:39.405Z,62.00
2019-03-22T00:55:08.740Z,61.87
2019-03-22T00:57:37.507Z,57.07
2019-03-22T01:00:14.420Z,60.23
2019-03-22T01:02:43.264Z,59.27
2019-03-22T01:05:12.260Z,58.20
2019-03-22T01:07:41.110Z,60.90
2019-03-22T01:10:14.221Z,58.00
2019-03-22T01:12:42.986Z,61.80
2019-03-22T01:15:14.689Z,61.00
2019-03-22T01:17:43.538Z,64.20
2019-03-22T01:20:13.777Z,66.23
2019-03-22T01:22:42.840Z,71.07
2019-03-22T01:25:12.841Z,69.20
2019-03-22T01:27:41.868Z,71.63
2019-03-22T01:30:14.023Z,71.07
2019-03-22T01:32:43.573Z,71.97
2019-03-22T01:35:13.354Z,69.20
2019-03-22T01:37:42.063Z,70.20
2019-03-22T01:40:12.218Z,74.70
2019-03-22T01:42:40.890Z,74.53
2019-03-22T01:45:12.139Z,70.07
2019-03-22T01:47:40.948Z,66.87
2019-03-22T01:50:12.738Z,65.97
2019-03-22T01:52:41.575Z,62.40
2019-03-22T01:55:10.359Z,64.90
2019-03-22T01:57:39.168Z,62.53
2019-03-22T02:00:11.179Z,66.40
2019-03-22T02:02:39.878Z,65.57
2019-03-22T02:05:09.983Z,66.07
2019-03-22T02:07:38.804Z,62.30
2019-03-22T02:10:10.023Z,65.00
2019-03-22T02:12:38.756Z,63.03
2019-03-22T02:15:10.290Z,66.83
2019-03-22T02:17:39.077Z,66.97
2019-03-22T02:20:09.110Z,71.53
2019-03-22T02:22:37.805Z,70.33
2019-03-22T02:25:07.631Z,65.87
2019-03-22T02:27:36.512Z,62.37
2019-03-22T02:30:10.778Z,63.07
2019-03-22T02:32:39.398Z,62.37
2019-03-22T02:35:08.301Z,62.13
2019-03-22T02:37:37.164Z,62.77
2019-03-22T02:40:13.039Z,61.00
2019-03-22T02:42:41.962Z,58.67
2019-03-22T02:45:14.841Z,63.70
2019-03-22T02:47:43.654Z,57.37
2019-03-22T02:50:18.799Z,56.63
2019-03-22T02:52:44.495Z,58.40
2019-03-22T02:55:13.941Z,56.10
2019-03-22T02:57:42.792Z,59.13
2019-03-22T03:00:14.110Z,61.13
2019-03-22T03:02:42.910Z,60.37
2019-03-22T03:05:11.976Z,65.80
2019-03-22T03:07:40.687Z,68.13
2019-03-22T03:10:14.288Z,68.57
2019-03-22T03:12:43.591Z,71.50
2019-03-22T03:15:16.457Z,74.80
2019-03-22T03:17:45.145Z,73.00
2019-03-22T03:20:15.889Z,74.77
2019-03-22T03:22:44.862Z,73.33
2019-03-22T03:25:13.987Z,74.80
2019-03-22T03:27:42.814Z,74.60
2019-03-22T03:30:17.009Z,71.67
2019-03-22T03:32:45.839Z,74.13
2019-03-22T03:35:15.152Z,76.07
2019-03-22T03:37:43.923Z,76.73
2019-03-22T03:40:15.135Z,77.40
2019-03-22T03:42:43.793Z,70.80
2019-03-22T03:45:30.429Z,73.20
2019-03-22T03:48:00.901Z,70.57
2019-03-22T03:50:29.613Z,68.23
2019-03-22T03:52:58.418Z,68.43
2019-03-22T03:55:28.059Z,68.50
2019-03-22T03:57:56.717Z,67.23
2019-03-22T04:00:25.398Z,68.20
2019-03-22T04:02:54.222Z,69.53
2019-03-22T04:05:22.983Z,69.73
2019-03-22T04:07:52.476Z,67.20
2019-03-22T04:10:21.348Z,69.00
2019-03-22T04:12:49.968Z,65.50
2019-03-22T04:15:18.664Z,61.77
2019-03-22T04:17:47.381Z,62.57
2019-03-22T04:20:16.207Z,64.77
2019-03-22T04:22:44.913Z,63.80
2019-03-22T04:25:13.779Z,59.80
2019-03-22T04:27:42.547Z,57.47
2019-03-22T04:30:11.424Z,55.40
2019-03-22T04:32:40.092Z,56.60
2019-03-22T04:35:09.195Z,65.40
2019-03-22T04:37:37.903Z,62.13
2019-03-22T04:40:18.720Z,64.83
2019-03-22T04:42:47.508Z,66.00
2019-03-22T04:45:16.402Z,64.90
2019-03-22T04:47:46.238Z,62.97
2019-03-22T04:50:15.422Z,60.03
2019-03-22T04:52:44.552Z,60.53
2019-03-22T04:55:14.204Z,61.43
2019-03-22T04:57:43.923Z,67.17
2019-03-22T05:00:13.921Z,77.20
2019-03-22T05:02:43.098Z,81.37
2019-03-22T05:05:13.292Z,78.53
2019-03-22T05:07:42.827Z,74.60
2019-03-22T05:10:13.916Z,73.63
2019-03-22T05:12:44.357Z,72.07
2019-03-22T05:15:15.794Z,70.70
2019-03-22T05:17:45.673Z,64.53
2019-03-22T05:20:15.603Z,60.77
2019-03-22T05:22:45.884Z,59.17
2019-03-22T05:25:15.533Z,59.27
2019-03-22T05:27:45.309Z,59.97
2019-03-22T05:30:35.338Z,62.83
2019-03-22T05:33:04.214Z,63.30
2019-03-22T05:35:32.898Z,64.03
2019-03-22T05:38:01.605Z,62.23
2019-03-22T05:40:30.287Z,62.23
2019-03-22T05:42:58.998Z,59.03
2019-03-22T05:45:27.698Z,57.20
2019-03-22T05:47:56.442Z,55.60
2019-03-22T05:50:25.207Z,53.87
2019-03-22T05:52:54.043Z,56.00
2019-03-22T05:55:22.782Z,54.50
2019-03-22T05:57:51.432Z,53.00
2019-03-22T06:00:20.112Z,51.77
2019-03-22T06:02:48.845Z,52.37
2019-03-22T06:05:17.619Z,53.30
2019-03-22T06:07:46.291Z,52.97
2019-03-22T06:10:14.995Z,50.60
2019-03-22T06:12:43.778Z,51.70
2019-03-22T06:15:12.658Z,55.27
2019-03-22T06:17:51.181Z,52.93
2019-03-22T06:20:11.838Z,56.50
2019-03-22T06:22:40.756Z,53.97
2019-03-22T06:25:09.621Z,58.83
2019-03-22T06:27:38.283Z,56.40
2019-03-22T06:30:08.424Z,56.30
2019-03-22T06:32:37.268Z,56.13
2019-03-22T06:35:07.449Z,56.13
2019-03-22T06:37:36.182Z,56.93
2019-03-22T06:40:06.186Z,63.33
2019-03-22T06:42:34.906Z,69.03
2019-03-22T06:45:04.673Z,75.67
2019-03-22T06:47:33.326Z,79.90
2019-03-22T06:50:02.044Z,78.03
2019-03-22T06:52:30.811Z,69.67
2019-03-22T06:54:59.531Z,69.83
2019-03-22T06:57:28.247Z,70.13
2019-03-22T07:00:05.910Z,72.97
2019-03-22T07:02:27.454Z,66.63
2019-03-22T07:04:56.099Z,66.77
2019-03-22T07:07:24.838Z,73.43
2019-03-22T07:09:53.814Z,71.57
2019-03-22T07:12:22.511Z,72.40
2019-03-22T07:14:51.225Z,69.80
2019-03-22T07:17:20.051Z,75.93
2019-03-22T07:19:48.917Z,75.53
2019-03-22T07:22:17.687Z,74.63
2019-03-22T07:24:46.407Z,72.03
2019-03-22T07:27:15.158Z,73.23
2019-03-22T07:29:43.943Z,65.63
2019-03-22T07:32:12.793Z,65.10
2019-03-22T07:34:41.474Z,65.37
2019-03-22T07:37:10.232Z,65.63
2019-03-22T07:39:38.877Z,65.57
2019-03-22T07:42:07.621Z,61.73
2019-03-22T07:44:36.478Z,65.50
2019-03-22T07:47:05.289Z,68.13
2019-03-22T07:49:34.212Z,66.43
2019-03-22T07:52:02.907Z,66.00
2019-03-22T07:54:31.602Z,66.03
2019-03-22T07:57:00.319Z,68.13
2019-03-22T07:59:29.357Z,67.53
2019-03-22T08:01:58.168Z,68.77
2019-03-22T08:04:26.892Z,70.43
2019-03-22T08:06:55.702Z,70.70
2019-03-22T08:09:24.510Z,71.90
2019-03-22T08:11:53.530Z,68.23
2019-03-22T08:14:22.372Z,68.93
2019-03-22T08:16:51.313Z,69.10
2019-03-22T08:19:20.061Z,72.90
2019-03-22T08:21:48.964Z,75.23
2019-03-22T08:24:17.687Z,71.50
2019-03-22T08:26:46.613Z,72.93
2019-03-22T08:29:15.391Z,77.57
2019-03-22T08:31:44.118Z,73.13
2019-03-22T08:34:13.474Z,72.70
2019-03-22T08:36:43.841Z,68.77
2019-03-22T08:39:12.771Z,70.13
2019-03-22T08:41:41.562Z,71.97
2019-03-22T08:44:10.559Z,73.47
2019-03-22T08:46:39.667Z,69.17
2019-03-22T08:49:09.700Z,69.33
2019-03-22T08:51:38.792Z,64.93
2019-03-22T08:54:07.560Z,71.33
2019-03-22T08:56:36.490Z,72.10
2019-03-22T08:59:05.419Z,69.80
2019-03-22T09:01:34.270Z,66.67
2019-03-22T09:04:03.371Z,67.73
2019-03-22T09:06:32.349Z,66.53
2019-03-22T09:09:01.084Z,65.60
2019-03-22T09:11:29.944Z,64.63
2019-03-22T09:13:58.822Z,65.00
2019-03-22T09:16:30.526Z,66.47
2019-03-22T09:18:58.146Z,64.43
2019-03-22T09:21:27.022Z,64.10
2019-03-22T09:23:55.780Z,64.00
2019-03-22T09:26:24.543Z,60.40
2019-03-22T09:28:53.264Z,62.87
2019-03-22T09:31:22.055Z,60.60
2019-03-22T09:33:50.857Z,60.70
2019-03-22T09:36:19.754Z,61.57
2019-03-22T09:38:48.651Z,59.63
2019-03-22T09:41:17.380Z,59.97
2019-03-22T09:43:46.308Z,57.40
2019-03-22T09:46:15.066Z,60.07
2019-03-22T09:48:43.798Z,56.57
2019-03-22T09:51:12.600Z,57.57
2019-03-22T09:53:41.395Z,54.37
2019-03-22T09:56:10.147Z,53.67
2019-03-22T09:58:39.008Z,56.27
2019-03-22T10:01:07.877Z,53.70
2019-03-22T10:03:36.668Z,54.13
2019-03-22T10:06:05.571Z,55.27
2019-03-22T10:08:34.426Z,50.47
2019-03-22T10:11:03.200Z,50.77
2019-03-22T10:13:31.953Z,51.60
2019-03-22T10:16:00.619Z,52.47
2019-03-22T10:18:29.327Z,50.73
2019-03-22T10:20:58.167Z,52.53
2019-03-22T10:23:26.937Z,52.03
2019-03-22T10:25:55.726Z,51.43
2019-03-22T10:28:24.416Z,49.00
2019-03-22T10:30:53.073Z,50.80
2019-03-22T10:33:23.070Z,50.97
2019-03-22T10:35:52.339Z,48.40
2019-03-22T10:38:30.900Z,50.40
2019-03-22T10:40:51.485Z,49.53
2019-03-22T10:43:20.388Z,47.43
2019-03-22T10:45:50.153Z,47.33
2019-03-22T10:48:18.777Z,48.90
2019-03-22T10:50:47.648Z,48.17
2019-03-22T10:53:16.484Z,47.30
2019-03-22T10:55:45.327Z,45.00
2019-03-22T10:58:20.777Z,45.83
2019-03-22T11:00:44.473Z,46.97
2019-03-22T11:03:13.251Z,47.77
2019-03-22T11:05:42.058Z,51.40
2019-03-22T11:08:10.799Z,50.77
2019-03-22T11:10:39.607Z,51.33
2019-03-22T11:13:08.370Z,48.63
2019-03-22T11:15:37.222Z,49.10
2019-03-22T11:18:06.181Z,50.30
2019-03-22T11:20:35.070Z,47.87
2019-03-22T11:23:03.918Z,47.77
2019-03-22T11:25:32.757Z,46.53
2019-03-22T11:28:01.510Z,46.43
2019-03-22T11:30:30.398Z,47.40
2019-03-22T11:32:59.232Z,47.20
2019-03-22T11:35:28.004Z,47.50
2019-03-22T11:37:56.731Z,45.27
2019-03-22T11:40:25.449Z,45.90
2019-03-22T11:42:54.298Z,46.27
2019-03-22T11:45:24.663Z,45.37
2019-03-22T11:47:53.756Z,48.17
2019-03-22T11:50:23.326Z,47.77
2019-03-22T11:52:52.191Z,49.47
2019-03-22T11:55:20.797Z,46.80
2019-03-22T11:57:49.578Z,48.60
2019-03-22T12:00:27.584Z,48.77
2019-03-22T12:02:56.510Z,50.17
2019-03-22T12:05:25.379Z,46.63
2019-03-22T12:07:54.165Z,48.87
2019-03-22T12:10:23.424Z,46.07
2019-03-22T12:12:52.253Z,46.00
2019-03-22T12:15:24.165Z,47.53
2019-03-22T12:17:53.010Z,44.50
2019-03-22T12:20:23.426Z,43.97
2019-03-22T12:22:52.560Z,44.30
2019-03-22T12:25:25.781Z,44.17
2019-03-22T12:27:54.601Z,47.27
2019-03-22T12:30:23.407Z,45.13
2019-03-22T12:32:52.273Z,49.60
2019-03-22T12:35:21.149Z,47.90
2019-03-22T12:37:49.978Z,48.50
2019-03-22T12:40:20.767Z,48.00
2019-03-22T12:42:49.613Z,46.90
2019-03-22T12:45:26.987Z,47.43
2019-03-22T12:47:55.862Z,46.10
2019-03-22T12:50:25.097Z,50.33
2019-03-22T12:52:53.861Z,45.93
2019-03-22T12:55:22.769Z,47.50
2019-03-22T12:57:51.712Z,44.30
2019-03-22T13:00:27.356Z,45.77
2019-03-22T13:02:56.389Z,42.60
2019-03-22T13:05:25.271Z,44.63
2019-03-22T13:07:54.019Z,42.13
2019-03-22T13:10:29.996Z,44.17
2019-03-22T13:12:58.825Z,49.27
2019-03-22T13:15:27.833Z,69.43
2019-03-22T13:17:56.672Z,45.80
2019-03-22T13:20:25.458Z,44.47
2019-03-22T13:22:54.461Z,44.13
2019-03-22T13:25:23.272Z,44.17
2019-03-22T13:27:52.388Z,47.60
2019-03-22T13:30:32.749Z,44.73
2019-03-22T13:33:01.541Z,42.97
2019-03-22T13:35:31.067Z,42.90
2019-03-22T13:38:00.360Z,44.20
2019-03-22T13:40:29.201Z,43.50
2019-03-22T13:42:58.550Z,43.07
2019-03-22T13:45:27.466Z,45.93
2019-03-22T13:47:56.277Z,54.20
2019-03-22T13:50:25.141Z,42.73
2019-03-22T13:52:53.935Z,44.10
2019-03-22T13:55:22.801Z,43.57
2019-03-22T13:57:51.524Z,43.77
2019-03-22T14:00:20.377Z,42.83
2019-03-22T14:02:49.405Z,45.27
2019-03-22T14:05:18.270Z,44.50
2019-03-22T14:07:47.141Z,43.37
2019-03-22T14:10:31.004Z,45.13
2019-03-22T14:13:01.312Z,42.47
2019-03-22T14:15:30.285Z,43.27
2019-03-22T14:17:59.266Z,43.57
2019-03-22T14:20:28.092Z,44.83
2019-03-22T14:22:56.931Z,44.37
2019-03-22T14:25:25.828Z,49.00
2019-03-22T14:27:55.107Z,46.83
2019-03-22T14:30:24.129Z,45.33
2019-03-22T14:32:52.891Z,41.53
2019-03-22T14:35:21.635Z,46.13
2019-03-22T14:37:50.375Z,40.90
2019-03-22T14:40:19.170Z,41.97
2019-03-22T14:42:47.932Z,38.47
2019-03-22T14:45:16.755Z,37.80
2019-03-22T14:47:45.591Z,40.23
2019-03-22T14:50:14.544Z,38.93
2019-03-22T14:52:43.327Z,38.70
2019-03-22T14:55:12.524Z,38.83
2019-03-22T14:57:48.974Z,35.87
2019-03-22T15:00:14.138Z,33.63
2019-03-22T15:02:42.953Z,34.63
2019-03-22T15:05:11.840Z,34.97
2019-03-22T15:07:40.545Z,32.73
2019-03-22T15:10:11.239Z,31.20
2019-03-22T15:12:40.204Z,32.00
2019-03-22T15:15:18.132Z,28.70
2019-03-22T15:18:04.687Z,29.33
2019-03-22T15:20:35.110Z,28.63
2019-03-22T15:23:08.593Z,28.97
2019-03-22T15:25:48.162Z,50.37
2019-03-22T15:28:35.179Z,52.13
2019-03-22T15:31:08.069Z,56.43
2019-03-22T15:33:44.334Z,111.50
2019-03-22T15:36:30.954Z,63.90
2019-03-22T15:39:07.801Z,68.20
2019-03-22T15:41:37.323Z,46.17
2019-03-22T15:44:06.247Z,50.50
2019-03-22T15:46:35.047Z,47.27
2019-03-22T15:49:03.775Z,74.60
2019-03-22T15:51:32.531Z,53.73
2019-03-22T15:54:01.381Z,39.70
2019-03-22T15:56:30.154Z,32.90
2019-03-22T15:58:58.864Z,41.53
2019-03-22T16:01:27.553Z,37.90
2019-03-22T16:03:56.334Z,35.03
2019-03-22T16:06:25.200Z,29.27
2019-03-22T16:08:54.088Z,29.73
2019-03-22T16:11:22.919Z,37.93
2019-03-22T16:13:53.684Z,45.93
2019-03-22T16:16:22.153Z,81.17
2019-03-22T16:18:50.983Z,96.50
2019-03-22T16:21:19.804Z,39.50
2019-03-22T16:23:48.735Z,40.60
2019-03-22T16:26:17.365Z,74.63
2019-03-22T16:28:46.158Z,53.63
2019-03-22T16:31:15.105Z,42.37
2019-03-22T16:33:47.070Z,35.43
2019-03-22T16:36:14.380Z,49.20
2019-03-22T16:38:43.410Z,44.23
2019-03-22T16:41:12.362Z,50.27
2019-03-22T16:43:41.322Z,44.60
2019-03-22T16:46:10.331Z,45.27
2019-03-22T16:48:39.150Z,49.63
2019-03-22T16:51:08.033Z,48.93
2019-03-22T16:53:36.934Z,49.43
2019-03-22T16:56:05.748Z,40.97
2019-03-22T16:58:34.581Z,43.23
2019-03-22T17:01:03.659Z,48.13
2019-03-22T17:03:32.364Z,43.33
2019-03-22T17:06:01.232Z,42.93
2019-03-22T17:08:30.126Z,42.37
2019-03-22T17:10:58.867Z,40.53
2019-03-22T17:13:27.651Z,41.10
2019-03-22T17:15:56.494Z,42.97
2019-03-22T17:18:25.332Z,42.03
2019-03-22T17:20:54.143Z,39.67
2019-03-22T17:23:23.043Z,38.07
2019-03-22T17:25:51.946Z,48.60
2019-03-22T17:28:20.777Z,39.80
2019-03-22T17:30:49.590Z,61.37
2019-03-22T17:33:18.392Z,64.10
2019-03-22T17:35:47.339Z,83.93
2019-03-22T17:38:16.196Z,102.00
2019-03-22T17:40:45.004Z,72.90
2019-03-22T17:43:13.857Z,107.97
2019-03-22T17:45:42.797Z,108.47
2019-03-22T17:48:11.447Z,121.47
2019-03-22T17:50:40.157Z,119.67
2019-03-22T17:53:09.071Z,116.33
2019-03-22T17:55:38.286Z,232.73
2019-03-22T17:58:07.135Z,205.87
2019-03-22T18:00:36.061Z,144.77
2019-03-22T18:03:05.197Z,236.03
2019-03-22T18:05:34.150Z,97.60
2019-03-22T18:08:03.049Z,101.63
2019-03-22T18:10:32.091Z,74.70
2019-03-22T18:13:01.005Z,57.60
2019-03-22T18:15:29.797Z,69.50
2019-03-22T18:17:58.523Z,67.60
2019-03-22T18:20:27.331Z,65.37
2019-03-22T18:22:56.055Z,54.27
2019-03-22T18:25:24.755Z,58.40
2019-03-22T18:27:53.510Z,56.10
2019-03-22T18:30:22.352Z,62.57
2019-03-22T18:32:51.028Z,143.17
2019-03-22T18:35:19.909Z,93.67
2019-03-22T18:37:48.904Z,84.17
2019-03-22T18:40:17.741Z,86.10
2019-03-22T18:42:46.483Z,257.57
2019-03-22T18:45:15.748Z,328.67
2019-03-22T18:47:44.772Z,311.73
2019-03-22T18:50:14.544Z,100.30
2019-03-22T18:52:43.494Z,87.57
2019-03-22T18:55:12.937Z,127.73
2019-03-22T18:57:41.854Z,91.87
2019-03-22T19:00:16.017Z,95.70
2019-03-22T19:02:44.882Z,72.70
2019-03-22T19:05:14.163Z,119.13
2019-03-22T19:07:42.870Z,123.00
2019-03-22T19:10:16.019Z,116.97
2019-03-22T19:12:44.759Z,117.23
2019-03-22T19:15:14.535Z,122.33
2019-03-22T19:17:43.201Z,143.60
2019-03-22T19:20:15.923Z,121.37
2019-03-22T19:22:44.768Z,108.07
2019-03-22T19:25:14.598Z,101.70
2019-03-22T19:27:43.640Z,108.30
2019-03-22T19:30:15.072Z,104.57
2019-03-22T19:32:43.836Z,89.13
2019-03-22T19:35:12.920Z,80.83
2019-03-22T19:37:41.695Z,99.97
2019-03-22T19:40:12.595Z,137.20
2019-03-22T19:42:41.519Z,80.57
2019-03-22T19:45:12.491Z,87.93
2019-03-22T19:47:41.335Z,120.17
2019-03-22T19:50:18.165Z,126.87
2019-03-22T19:52:47.366Z,134.00
2019-03-22T19:55:16.168Z,148.60
2019-03-22T19:57:45.074Z,171.37
2019-03-22T20:00:16.590Z,116.77
2019-03-22T20:02:45.380Z,110.70
2019-03-22T20:05:22.980Z,158.60
2019-03-22T20:07:51.846Z,123.67
2019-03-22T20:10:20.716Z,92.03
2019-03-22T20:12:49.897Z,89.27
2019-03-22T20:15:18.750Z,72.57
2019-03-22T20:17:47.620Z,61.37
2019-03-22T20:20:16.458Z,76.10
2019-03-22T20:22:45.470Z,85.47
2019-03-22T20:25:14.595Z,65.77
2019-03-22T20:27:43.620Z,97.80
2019-03-22T20:30:14.922Z,93.07
2019-03-22T20:32:44.094Z,72.77
2019-03-22T20:35:16.667Z,69.67
2019-03-22T20:37:44.954Z,76.33
2019-03-22T20:40:16.119Z,77.37
2019-03-22T20:42:45.160Z,83.93
2019-03-22T20:45:23.596Z,86.57
2019-03-22T20:47:44.424Z,94.03
2019-03-22T20:50:13.591Z,89.47
2019-03-22T20:52:42.508Z,90.67
2019-03-22T20:55:11.338Z,98.67
2019-03-22T20:57:40.088Z,91.63
2019-03-22T21:00:12.397Z,79.83
2019-03-22T21:02:41.199Z,81.97
2019-03-22T21:05:10.362Z,95.37
2019-03-22T21:07:39.111Z,112.53
2019-03-22T21:10:08.844Z,104.13
2019-03-22T21:12:37.761Z,91.90
2019-03-22T21:15:07.969Z,70.13
2019-03-22T21:17:36.703Z,67.13
2019-03-22T21:20:10.280Z,65.80
2019-03-22T21:22:39.121Z,64.00
2019-03-22T21:25:08.740Z,62.07
2019-03-22T21:27:37.633Z,61.40
2019-03-22T21:30:08.940Z,66.20
2019-03-22T21:32:45.234Z,72.77
2019-03-22T21:35:08.810Z,72.70
2019-03-22T21:37:37.569Z,73.20
2019-03-22T21:40:08.224Z,76.27
2019-03-22T21:42:37.088Z,79.53
2019-03-22T21:45:06.918Z,84.73
2019-03-22T21:47:36.280Z,74.47
2019-03-22T21:50:07.896Z,93.43
2019-03-22T21:52:36.556Z,84.43
2019-03-22T21:55:07.242Z,77.77
2019-03-22T21:57:36.080Z,84.80
2019-03-22T22:00:10.504Z,80.23
2019-03-22T22:02:39.246Z,78.13
2019-03-22T22:05:08.321Z,70.83
2019-03-22T22:07:37.235Z,70.10
2019-03-22T22:10:10.438Z,73.77
2019-03-22T22:12:39.512Z,75.63
2019-03-22T22:15:12.115Z,74.63
2019-03-22T22:17:41.624Z,85.63
2019-03-22T22:20:10.889Z,87.57
2019-03-22T22:22:39.540Z,86.03
2019-03-22T22:25:09.360Z,82.77
2019-03-22T22:27:38.149Z,84.03
2019-03-22T22:30:08.987Z,84.97
2019-03-22T22:32:37.855Z,96.03
2019-03-22T22:35:08.253Z,154.37
2019-03-22T22:37:36.965Z,106.90
2019-03-22T22:40:11.449Z,89.83
2019-03-22T22:42:40.278Z,94.60
2019-03-22T22:45:10.755Z,92.37
2019-03-22T22:47:39.487Z,121.90
2019-03-22T22:50:12.443Z,150.07
2019-03-22T22:52:41.329Z,128.33
2019-03-22T22:55:10.561Z,117.87
2019-03-22T22:57:39.435Z,110.10
2019-03-22T23:00:15.832Z,102.47
2019-03-22T23:02:45.080Z,98.33
2019-03-22T23:05:13.927Z,94.13
2019-03-22T23:07:42.923Z,95.13
2019-03-22T23:10:12.841Z,93.70
2019-03-22T23:12:42.283Z,96.80
2019-03-22T23:15:11.595Z,90.87
2019-03-22T23:17:40.541Z,87.63
2019-03-22T23:20:10.634Z,85.03
2019-03-22T23:22:39.395Z,92.20
2019-03-22T23:25:08.205Z,105.17
2019-03-22T23:27:37.641Z,99.27
2019-03-22T23:30:09.354Z,89.00
2019-03-22T23:32:38.289Z,88.57
2019-03-22T23:35:07.168Z,93.40
2019-03-22T23:37:35.830Z,84.50
2019-03-22T23:40:06.413Z,75.30
2019-03-22T23:42:35.131Z,75.70
2019-03-22T23:45:05.489Z,89.03
2019-03-22T23:47:34.226Z,94.37
2019-03-22T23:50:03.642Z,88.97
2019-03-22T23:52:32.323Z,90.03
2019-03-22T23:55:01.239Z,88.53
2019-03-22T23:57:30.049Z,85.63
2019-03-22T23:59:58.796Z,89.43
